sensor_id;sensor_type;location;lat;lon;timestamp;P1;durP1;ratioP1;P2;durP2;ratioP2
9400;SDS011;4740;49.592;6.140;2024-03-23T00:55:42;4.27;;;1.83;;
9400;SDS011;4740;49.592;6.140;2024-03-23T00:58:08;0.67;;;0.67;;
9400;SDS011;4740;49.592;6.140;2024-03-23T01:00:33;0.70;;;0.70;;
9400;SDS011;4740;49.592;6.140;2024-03-23T01:02:58;1.33;;;1.23;;
9400;SDS011;4740;49.592;6.140;2024-03-23T01:05:24;3.20;;;3.00;;
9400;SDS011;4740;49.592;6.140;2024-03-23T01:07:49;5.40;;;3.93;;
9400;SDS011;4740;49.592;6.140;2024-03-23T01:10:14;0.67;;;0.57;;
9400;SDS011;4740;49.592;6.140;2024-03-23T01:12:39;5.50;;;3.53;;
9400;SDS011;4740;49.592;6.140;2024-03-23T01:15:05;3.17;;;2.37;;
9400;SDS011;4740;49.592;6.140;2024-03-23T01:17:30;2.13;;;1.97;;
9400;SDS011;4740;49.592;6.140;2024-03-23T01:19:55;7.53;;;4.07;;
9400;SDS011;4740;49.592;6.140;2024-03-23T01:22:20;4.23;;;2.40;;
9400;SDS011;4740;49.592;6.140;2024-03-23T01:24:45;2.10;;;1.00;;
9400;SDS011;4740;49.592;6.140;2024-03-23T01:27:11;3.43;;;2.53;;
9400;SDS011;4740;49.592;6.140;2024-03-23T01:29:36;3.97;;;3.00;;
9400;SDS011;4740;49.592;6.140;2024-03-23T01:32:01;3.37;;;2.70;;
9400;SDS011;4740;49.592;6.140;2024-03-23T01:34:26;1.63;;;1.53;;
9400;SDS011;4740;49.592;6.140;2024-03-23T01:36:53;2.77;;;2.17;;
9400;SDS011;4740;49.592;6.140;2024-03-23T01:39:18;1.50;;;1.40;;
9400;SDS011;4740;49.592;6.140;2024-03-23T01:41:43;1.60;;;0.90;;
9400;SDS011;4740;49.592;6.140;2024-03-23T01:44:08;1.13;;;1.13;;
9400;SDS011;4740;49.592;6.140;2024-03-23T01:46:34;1.20;;;1.20;;
9400;SDS011;4740;49.592;6.140;2024-03-23T01:49:00;0.80;;;0.50;;
9400;SDS011;4740;49.592;6.140;2024-03-23T01:51:25;1.63;;;1.53;;
9400;SDS011;4740;49.592;6.140;2024-03-23T01:53:51;0.70;;;0.70;;
9400;SDS011;4740;49.592;6.140;2024-03-23T01:56:17;0.60;;;0.60;;
9400;SDS011;4740;49.592;6.140;2024-03-23T01:58:43;0.40;;;0.40;;
9400;SDS011;4740;49.592;6.140;2024-03-23T02:01:08;0.37;;;0.37;;
9400;SDS011;4740;49.592;6.140;2024-03-23T02:03:33;1.00;;;0.73;;
9400;SDS011;4740;49.592;6.140;2024-03-23T02:05:58;0.20;;;0.20;;
9400;SDS011;4740;49.592;6.140;2024-03-23T02:08:24;0.20;;;0.20;;
9400;SDS011;4740;49.592;6.140;2024-03-23T02:10:50;0.00;;;0.00;;
9400;SDS011;4740;49.592;6.140;2024-03-23T02:13:15;0.20;;;0.20;;
9400;SDS011;4740;49.592;6.140;2024-03-23T02:15:41;0.37;;;0.37;;
9400;SDS011;4740;49.592;6.140;2024-03-23T02:18:09;0.00;;;0.00;;
9400;SDS011;4740;49.592;6.140;2024-03-23T02:20:35;0.00;;;0.00;;
9400;SDS011;4740;49.592;6.140;2024-03-23T02:23:00;0.10;;;0.10;;
9400;SDS011;4740;49.592;6.140;2024-03-23T02:25:25;0.10;;;0.10;;
9400;SDS011;4740;49.592;6.140;2024-03-23T02:27:50;0.17;;;0.17;;
9400;SDS011;4740;49.592;6.140;2024-03-23T02:30:16;0.30;;;0.30;;
9400;SDS011;4740;49.592;6.140;2024-03-23T02:32:41;0.20;;;0.20;;
9400;SDS011;4740;49.592;6.140;2024-03-23T02:35:06;0.10;;;0.10;;
9400;SDS011;4740;49.592;6.140;2024-03-23T02:37:31;0.03;;;0.03;;
9400;SDS011;4740;49.592;6.140;2024-03-23T02:39:57;0.10;;;0.10;;
9400;SDS011;4740;49.592;6.140;2024-03-23T02:42:23;0.00;;;0.00;;
9400;SDS011;4740;49.592;6.140;2024-03-23T02:44:48;0.00;;;0.00;;
9400;SDS011;4740;49.592;6.140;2024-03-23T02:47:13;0.10;;;0.10;;
9400;SDS011;4740;49.592;6.140;2024-03-23T02:49:38;3.20;;;0.33;;
9400;SDS011;4740;49.592;6.140;2024-03-23T02:52:03;0.07;;;0.07;;
9400;SDS011;4740;49.592;6.140;2024-03-23T02:54:29;0.00;;;0.00;;
9400;SDS011;4740;49.592;6.140;2024-03-23T02:56:54;0.00;;;0.00;;
9400;SDS011;4740;49.592;6.140;2024-03-23T02:59:19;0.33;;;0.33;;
9400;SDS011;4740;49.592;6.140;2024-03-23T03:01:44;0.50;;;0.23;;
9400;SDS011;4740;49.592;6.140;2024-03-23T03:04:10;0.00;;;0.00;;
9400;SDS011;4740;49.592;6.140;2024-03-23T03:06:35;0.10;;;0.10;;
9400;SDS011;4740;49.592;6.140;2024-03-23T03:09:00;0.20;;;0.20;;
9400;SDS011;4740;49.592;6.140;2024-03-23T03:11:25;0.00;;;0.00;;
9400;SDS011;4740;49.592;6.140;2024-03-23T03:13:50;0.07;;;0.07;;
9400;SDS011;4740;49.592;6.140;2024-03-23T03:16:16;0.10;;;0.10;;
9400;SDS011;4740;49.592;6.140;2024-03-23T03:18:41;0.17;;;0.17;;
9400;SDS011;4740;49.592;6.140;2024-03-23T03:21:06;0.40;;;0.40;;
9400;SDS011;4740;49.592;6.140;2024-03-23T03:23:36;0.27;;;0.27;;
9400;SDS011;4740;49.592;6.140;2024-03-23T03:26:01;0.00;;;0.00;;
9400;SDS011;4740;49.592;6.140;2024-03-23T03:28:26;0.40;;;0.40;;
9400;SDS011;4740;49.592;6.140;2024-03-23T03:30:55;0.10;;;0.10;;
9400;SDS011;4740;49.592;6.140;2024-03-23T03:33:20;0.60;;;0.60;;
9400;SDS011;4740;49.592;6.140;2024-03-23T03:35:45;0.37;;;0.37;;
9400;SDS011;4740;49.592;6.140;2024-03-23T03:38:11;0.93;;;0.10;;
9400;SDS011;4740;49.592;6.140;2024-03-23T03:40:36;0.30;;;0.30;;
9400;SDS011;4740;49.592;6.140;2024-03-23T03:43:01;0.50;;;0.50;;
9400;SDS011;4740;49.592;6.140;2024-03-23T03:45:26;0.10;;;0.10;;
9400;SDS011;4740;49.592;6.140;2024-03-23T03:47:52;1.00;;;1.00;;
9400;SDS011;4740;49.592;6.140;2024-03-23T03:50:17;0.30;;;0.30;;
9400;SDS011;4740;49.592;6.140;2024-03-23T03:52:42;0.00;;;0.00;;
9400;SDS011;4740;49.592;6.140;2024-03-23T03:55:12;0.10;;;0.10;;
9400;SDS011;4740;49.592;6.140;2024-03-23T03:57:38;0.20;;;0.20;;
9400;SDS011;4740;49.592;6.140;2024-03-23T04:00:03;0.00;;;0.00;;
9400;SDS011;4740;49.592;6.140;2024-03-23T04:02:29;0.30;;;0.30;;
9400;SDS011;4740;49.592;6.140;2024-03-23T04:04:54;0.60;;;0.60;;
9400;SDS011;4740;49.592;6.140;2024-03-23T04:07:19;0.40;;;0.40;;
9400;SDS011;4740;49.592;6.140;2024-03-23T04:09:47;0.30;;;0.30;;
9400;SDS011;4740;49.592;6.140;2024-03-23T04:12:12;0.20;;;0.20;;
9400;SDS011;4740;49.592;6.140;2024-03-23T04:14:38;0.93;;;0.83;;
9400;SDS011;4740;49.592;6.140;2024-03-23T04:17:03;0.20;;;0.20;;
9400;SDS011;4740;49.592;6.140;2024-03-23T04:19:28;0.20;;;0.20;;
9400;SDS011;4740;49.592;6.140;2024-03-23T04:21:53;0.00;;;0.00;;
9400;SDS011;4740;49.592;6.140;2024-03-23T04:24:19;0.00;;;0.00;;
9400;SDS011;4740;49.592;6.140;2024-03-23T04:26:46;0.47;;;0.40;;
9400;SDS011;4740;49.592;6.140;2024-03-23T04:29:11;1.80;;;0.60;;
9400;SDS011;4740;49.592;6.140;2024-03-23T04:31:37;0.97;;;0.67;;
9400;SDS011;4740;49.592;6.140;2024-03-23T04:34:02;0.37;;;0.37;;
9400;SDS011;4740;49.592;6.140;2024-03-23T04:36:28;0.67;;;0.67;;
9400;SDS011;4740;49.592;6.140;2024-03-23T04:38:53;0.00;;;0.00;;
9400;SDS011;4740;49.592;6.140;2024-03-23T04:41:19;0.43;;;0.43;;
9400;SDS011;4740;49.592;6.140;2024-03-23T04:43:44;0.43;;;0.43;;
9400;SDS011;4740;49.592;6.140;2024-03-23T04:46:09;0.43;;;0.43;;
9400;SDS011;4740;49.592;6.140;2024-03-23T04:48:35;0.13;;;0.13;;
9400;SDS011;4740;49.592;6.140;2024-03-23T04:51:01;0.33;;;0.33;;
9400;SDS011;4740;49.592;6.140;2024-03-23T04:53:26;0.43;;;0.43;;
9400;SDS011;4740;49.592;6.140;2024-03-23T04:55:54;0.40;;;0.40;;
9400;SDS011;4740;49.592;6.140;2024-03-23T04:58:19;1.00;;;1.00;;
9400;SDS011;4740;49.592;6.140;2024-03-23T05:00:44;0.67;;;0.20;;
9400;SDS011;4740;49.592;6.140;2024-03-23T05:03:09;0.23;;;0.23;;
9400;SDS011;4740;49.592;6.140;2024-03-23T05:05:35;0.67;;;0.67;;
9400;SDS011;4740;49.592;6.140;2024-03-23T05:08:00;0.43;;;0.20;;
9400;SDS011;4740;49.592;6.140;2024-03-23T05:10:25;1.43;;;1.10;;
9400;SDS011;4740;49.592;6.140;2024-03-23T05:12:50;0.67;;;0.43;;
9400;SDS011;4740;49.592;6.140;2024-03-23T05:15:16;0.50;;;0.50;;
9400;SDS011;4740;49.592;6.140;2024-03-23T05:17:41;0.60;;;0.60;;
9400;SDS011;4740;49.592;6.140;2024-03-23T05:20:07;0.80;;;0.80;;
9400;SDS011;4740;49.592;6.140;2024-03-23T05:22:35;0.87;;;0.87;;
9400;SDS011;4740;49.592;6.140;2024-03-23T05:25:00;0.70;;;0.70;;
9400;SDS011;4740;49.592;6.140;2024-03-23T05:27:26;1.40;;;1.30;;
9400;SDS011;4740;49.592;6.140;2024-03-23T05:29:51;4.30;;;1.30;;
9400;SDS011;4740;49.592;6.140;2024-03-23T05:32:16;0.73;;;0.73;;
9400;SDS011;4740;49.592;6.140;2024-03-23T05:34:41;1.40;;;0.97;;
9400;SDS011;4740;49.592;6.140;2024-03-23T05:37:06;2.53;;;1.63;;
9400;SDS011;4740;49.592;6.140;2024-03-23T05:39:32;0.40;;;0.20;;
9400;SDS011;4740;49.592;6.140;2024-03-23T05:41:57;0.17;;;0.17;;
9400;SDS011;4740;49.592;6.140;2024-03-23T05:44:22;0.67;;;0.67;;
9400;SDS011;4740;49.592;6.140;2024-03-23T05:46:47;1.53;;;1.43;;
9400;SDS011;4740;49.592;6.140;2024-03-23T05:49:13;3.87;;;2.30;;
9400;SDS011;4740;49.592;6.140;2024-03-23T05:51:39;1.63;;;1.53;;
9400;SDS011;4740;49.592;6.140;2024-03-23T05:54:04;1.93;;;0.80;;
9400;SDS011;4740;49.592;6.140;2024-03-23T05:56:29;2.10;;;1.50;;
9400;SDS011;4740;49.592;6.140;2024-03-23T05:58:55;1.07;;;1.07;;
9400;SDS011;4740;49.592;6.140;2024-03-23T06:01:20;2.57;;;1.50;;
9400;SDS011;4740;49.592;6.140;2024-03-23T06:03:45;1.03;;;0.87;;
9400;SDS011;4740;49.592;6.140;2024-03-23T06:06:10;2.00;;;1.30;;
9400;SDS011;4740;49.592;6.140;2024-03-23T06:08:37;3.30;;;0.87;;
9400;SDS011;4740;49.592;6.140;2024-03-23T06:11:03;0.20;;;0.20;;
9400;SDS011;4740;49.592;6.140;2024-03-23T06:13:29;0.83;;;0.43;;
9400;SDS011;4740;49.592;6.140;2024-03-23T06:15:55;2.70;;;1.07;;
9400;SDS011;4740;49.592;6.140;2024-03-23T06:18:20;5.47;;;1.93;;
9400;SDS011;4740;49.592;6.140;2024-03-23T06:20:45;0.90;;;0.90;;
9400;SDS011;4740;49.592;6.140;2024-03-23T06:23:11;2.40;;;1.27;;
9400;SDS011;4740;49.592;6.140;2024-03-23T06:25:37;1.83;;;1.13;;
9400;SDS011;4740;49.592;6.140;2024-03-23T06:28:02;6.63;;;3.50;;
9400;SDS011;4740;49.592;6.140;2024-03-23T06:30:29;1.73;;;1.47;;
9400;SDS011;4740;49.592;6.140;2024-03-23T06:32:54;3.47;;;2.47;;
9400;SDS011;4740;49.592;6.140;2024-03-23T06:35:20;5.70;;;3.23;;
9400;SDS011;4740;49.592;6.140;2024-03-23T06:37:45;2.47;;;1.60;;
9400;SDS011;4740;49.592;6.140;2024-03-23T06:40:10;0.70;;;0.57;;
9400;SDS011;4740;49.592;6.140;2024-03-23T06:42:36;0.63;;;0.63;;
9400;SDS011;4740;49.592;6.140;2024-03-23T06:45:01;1.40;;;1.30;;
9400;SDS011;4740;49.592;6.140;2024-03-23T06:47:27;1.20;;;1.20;;
9400;SDS011;4740;49.592;6.140;2024-03-23T06:49:52;3.70;;;2.23;;
9400;SDS011;4740;49.592;6.140;2024-03-23T06:52:17;1.73;;;1.67;;
9400;SDS011;4740;49.592;6.140;2024-03-23T06:54:50;1.87;;;1.70;;
9400;SDS011;4740;49.592;6.140;2024-03-23T07:00:32;0.80;;;0.80;;
9400;SDS011;4740;49.592;6.140;2024-03-23T07:09:18;0.90;;;0.90;;
9400;SDS011;4740;49.592;6.140;2024-03-23T07:11:59;1.50;;;0.60;;
9400;SDS011;4740;49.592;6.140;2024-03-23T07:14:29;3.53;;;2.10;;
9400;SDS011;4740;49.592;6.140;2024-03-23T07:17:27;2.57;;;1.40;;
9400;SDS011;4740;49.592;6.140;2024-03-23T07:20:25;6.40;;;1.30;;
9400;SDS011;4740;49.592;6.140;2024-03-23T07:23:01;1.00;;;1.00;;
9400;SDS011;4740;49.592;6.140;2024-03-23T07:28:32;0.43;;;0.43;;
9400;SDS011;4740;49.592;6.140;2024-03-23T07:34:43;2.73;;;2.53;;
9400;SDS011;4740;49.592;6.140;2024-03-23T07:37:14;0.93;;;0.93;;
9400;SDS011;4740;49.592;6.140;2024-03-23T07:42:42;4.10;;;2.10;;
9400;SDS011;4740;49.592;6.140;2024-03-23T07:48:18;3.30;;;2.33;;
9400;SDS011;4740;49.592;6.140;2024-03-23T07:51:30;1.03;;;0.80;;
9400;SDS011;4740;49.592;6.140;2024-03-23T07:54:21;5.47;;;3.17;;
9400;SDS011;4740;49.592;6.140;2024-03-23T07:56:52;3.03;;;2.83;;
9400;SDS011;4740;49.592;6.140;2024-03-23T08:02:20;1.63;;;1.53;;
9400;SDS011;4740;49.592;6.140;2024-03-23T08:05:06;4.45;;;1.88;;
9400;SDS011;4740;49.592;6.140;2024-03-23T08:07:48;1.90;;;1.00;;
9400;SDS011;4740;49.592;6.140;2024-03-23T08:10:25;3.27;;;1.30;;
9400;SDS011;4740;49.592;6.140;2024-03-23T08:13:04;2.53;;;1.53;;
9400;SDS011;4740;49.592;6.140;2024-03-23T08:15:58;2.25;;;1.70;;
9400;SDS011;4740;49.592;6.140;2024-03-23T08:21:34;6.10;;;1.83;;
9400;SDS011;4740;49.592;6.140;2024-03-23T08:24:08;1.70;;;1.57;;
9400;SDS011;4740;49.592;6.140;2024-03-23T08:26:37;1.60;;;1.43;;
9400;SDS011;4740;49.592;6.140;2024-03-23T08:29:14;1.97;;;1.80;;
9400;SDS011;4740;49.592;6.140;2024-03-23T08:34:30;10.33;;;3.43;;
9400;SDS011;4740;49.592;6.140;2024-03-23T08:36:57;9.83;;;3.77;;
9400;SDS011;4740;49.592;6.140;2024-03-23T08:39:23;2.63;;;1.97;;
9400;SDS011;4740;49.592;6.140;2024-03-23T08:41:50;1.60;;;1.47;;
9400;SDS011;4740;49.592;6.140;2024-03-23T08:44:17;4.60;;;1.70;;
9400;SDS011;4740;49.592;6.140;2024-03-23T08:46:43;4.10;;;1.67;;
9400;SDS011;4740;49.592;6.140;2024-03-23T08:49:08;3.33;;;2.73;;
9400;SDS011;4740;49.592;6.140;2024-03-23T08:51:33;4.40;;;2.30;;
9400;SDS011;4740;49.592;6.140;2024-03-23T08:53:58;2.60;;;2.40;;
9400;SDS011;4740;49.592;6.140;2024-03-23T08:56:24;2.87;;;2.57;;
9400;SDS011;4740;49.592;6.140;2024-03-23T08:58:50;2.53;;;2.33;;
9400;SDS011;4740;49.592;6.140;2024-03-23T09:01:16;3.33;;;2.37;;
9400;SDS011;4740;49.592;6.140;2024-03-23T09:03:42;3.23;;;1.73;;
9400;SDS011;4740;49.592;6.140;2024-03-23T09:06:08;0.83;;;0.77;;
9400;SDS011;4740;49.592;6.140;2024-03-23T09:08:34;3.13;;;1.77;;
9400;SDS011;4740;49.592;6.140;2024-03-23T09:11:09;3.23;;;1.87;;
9400;SDS011;4740;49.592;6.140;2024-03-23T09:13:35;5.27;;;2.10;;
9400;SDS011;4740;49.592;6.140;2024-03-23T09:16:01;2.40;;;2.20;;
9400;SDS011;4740;49.592;6.140;2024-03-23T09:18:26;2.63;;;2.43;;
9400;SDS011;4740;49.592;6.140;2024-03-23T09:20:51;0.67;;;0.67;;
9400;SDS011;4740;49.592;6.140;2024-03-23T09:23:18;0.10;;;0.10;;
9400;SDS011;4740;49.592;6.140;2024-03-23T09:25:43;5.67;;;1.90;;
9400;SDS011;4740;49.592;6.140;2024-03-23T09:28:08;2.00;;;1.90;;
9400;SDS011;4740;49.592;6.140;2024-03-23T09:30:34;4.07;;;2.83;;
9400;SDS011;4740;49.592;6.140;2024-03-23T09:32:59;1.87;;;1.77;;
9400;SDS011;4740;49.592;6.140;2024-03-23T09:35:24;0.57;;;0.57;;
9400;SDS011;4740;49.592;6.140;2024-03-23T09:37:50;2.17;;;1.17;;
9400;SDS011;4740;49.592;6.140;2024-03-23T09:40:15;6.40;;;2.47;;
9400;SDS011;4740;49.592;6.140;2024-03-23T09:42:40;2.33;;;2.13;;
9400;SDS011;4740;49.592;6.140;2024-03-23T09:45:15;3.00;;;2.13;;
9400;SDS011;4740;49.592;6.140;2024-03-23T09:47:41;7.43;;;2.80;;
9400;SDS011;4740;49.592;6.140;2024-03-23T09:50:07;3.93;;;1.53;;
9400;SDS011;4740;49.592;6.140;2024-03-23T09:52:32;3.70;;;1.87;;
9400;SDS011;4740;49.592;6.140;2024-03-23T09:54:58;7.27;;;2.10;;
9400;SDS011;4740;49.592;6.140;2024-03-23T09:57:23;1.13;;;1.13;;
9400;SDS011;4740;49.592;6.140;2024-03-23T09:59:48;7.37;;;2.50;;
9400;SDS011;4740;49.592;6.140;2024-03-23T10:02:13;5.83;;;1.40;;
9400;SDS011;4740;49.592;6.140;2024-03-23T10:04:42;0.63;;;0.63;;
9400;SDS011;4740;49.592;6.140;2024-03-23T10:07:14;1.90;;;1.07;;
9400;SDS011;4740;49.592;6.140;2024-03-23T10:09:40;0.80;;;0.80;;
9400;SDS011;4740;49.592;6.140;2024-03-23T10:12:12;3.77;;;2.20;;
9400;SDS011;4740;49.592;6.140;2024-03-23T10:14:38;5.40;;;1.57;;
9400;SDS011;4740;49.592;6.140;2024-03-23T10:17:20;3.87;;;1.37;;
9400;SDS011;4740;49.592;6.140;2024-03-23T10:19:48;9.87;;;0.70;;
9400;SDS011;4740;49.592;6.140;2024-03-23T10:24:43;0.00;;;0.00;;
9400;SDS011;4740;49.592;6.140;2024-03-23T10:27:08;2.77;;;0.73;;
9400;SDS011;4740;49.592;6.140;2024-03-23T10:29:33;0.00;;;0.00;;
9400;SDS011;4740;49.592;6.140;2024-03-23T10:32:07;0.40;;;0.40;;
9400;SDS011;4740;49.592;6.140;2024-03-23T10:34:32;0.33;;;0.27;;
9400;SDS011;4740;49.592;6.140;2024-03-23T10:36:57;0.43;;;0.43;;
9400;SDS011;4740;49.592;6.140;2024-03-23T10:39:24;0.97;;;0.60;;
9400;SDS011;4740;49.592;6.140;2024-03-23T10:41:50;0.30;;;0.23;;
9400;SDS011;4740;49.592;6.140;2024-03-23T10:44:16;0.10;;;0.10;;
9400;SDS011;4740;49.592;6.140;2024-03-23T10:46:43;0.47;;;0.47;;
9400;SDS011;4740;49.592;6.140;2024-03-23T10:49:08;0.97;;;0.70;;
9400;SDS011;4740;49.592;6.140;2024-03-23T10:51:34;0.37;;;0.37;;
9400;SDS011;4740;49.592;6.140;2024-03-23T10:53:59;0.57;;;0.57;;
9400;SDS011;4740;49.592;6.140;2024-03-23T10:56:28;0.60;;;0.60;;
9400;SDS011;4740;49.592;6.140;2024-03-23T10:58:58;0.20;;;0.20;;
9400;SDS011;4740;49.592;6.140;2024-03-23T11:01:24;0.40;;;0.40;;
9400;SDS011;4740;49.592;6.140;2024-03-23T11:03:50;0.70;;;0.70;;
9400;SDS011;4740;49.592;6.140;2024-03-23T11:06:36;3.87;;;1.07;;
9400;SDS011;4740;49.592;6.140;2024-03-23T11:09:01;0.00;;;0.00;;
9400;SDS011;4740;49.592;6.140;2024-03-23T11:11:26;1.73;;;0.73;;
9400;SDS011;4740;49.592;6.140;2024-03-23T11:13:53;0.70;;;0.70;;
9400;SDS011;4740;49.592;6.140;2024-03-23T11:16:22;2.73;;;0.97;;
9400;SDS011;4740;49.592;6.140;2024-03-23T11:18:48;1.70;;;1.03;;
9400;SDS011;4740;49.592;6.140;2024-03-23T11:24:14;2.10;;;0.27;;
9400;SDS011;4740;49.592;6.140;2024-03-23T11:26:39;0.40;;;0.40;;
9400;SDS011;4740;49.592;6.140;2024-03-23T11:29:11;0.80;;;0.77;;
9400;SDS011;4740;49.592;6.140;2024-03-23T11:31:52;2.10;;;0.27;;
9400;SDS011;4740;49.592;6.140;2024-03-23T11:34:18;4.23;;;1.50;;
9400;SDS011;4740;49.592;6.140;2024-03-23T11:36:44;2.83;;;1.50;;
9400;SDS011;4740;49.592;6.140;2024-03-23T11:41:45;0.30;;;0.30;;
9400;SDS011;4740;49.592;6.140;2024-03-23T11:44:20;0.37;;;0.30;;
9400;SDS011;4740;49.592;6.140;2024-03-23T11:46:46;3.17;;;1.67;;
9400;SDS011;4740;49.592;6.140;2024-03-23T11:51:49;0.33;;;0.33;;
9400;SDS011;4740;49.592;6.140;2024-03-23T11:54:14;0.30;;;0.30;;
9400;SDS011;4740;49.592;6.140;2024-03-23T11:56:39;0.60;;;0.60;;
9400;SDS011;4740;49.592;6.140;2024-03-23T11:59:06;1.37;;;0.30;;
9400;SDS011;4740;49.592;6.140;2024-03-23T12:01:31;0.50;;;0.40;;
9400;SDS011;4740;49.592;6.140;2024-03-23T12:03:56;0.47;;;0.47;;
9400;SDS011;4740;49.592;6.140;2024-03-23T12:06:21;0.00;;;0.00;;
9400;SDS011;4740;49.592;6.140;2024-03-23T12:08:46;1.83;;;0.50;;
9400;SDS011;4740;49.592;6.140;2024-03-23T12:11:16;0.87;;;0.73;;
9400;SDS011;4740;49.592;6.140;2024-03-23T12:13:42;1.50;;;0.60;;
9400;SDS011;4740;49.592;6.140;2024-03-23T12:16:09;0.67;;;0.67;;
9400;SDS011;4740;49.592;6.140;2024-03-23T12:18:34;0.20;;;0.20;;
9400;SDS011;4740;49.592;6.140;2024-03-23T12:20:59;0.73;;;0.40;;
9400;SDS011;4740;49.592;6.140;2024-03-23T12:23:25;0.30;;;0.30;;
9400;SDS011;4740;49.592;6.140;2024-03-23T12:25:50;0.00;;;0.00;;
9400;SDS011;4740;49.592;6.140;2024-03-23T12:28:15;2.00;;;0.50;;
9400;SDS011;4740;49.592;6.140;2024-03-23T12:30:41;0.93;;;0.60;;
9400;SDS011;4740;49.592;6.140;2024-03-23T12:33:06;0.10;;;0.10;;
9400;SDS011;4740;49.592;6.140;2024-03-23T12:35:32;1.90;;;0.37;;
9400;SDS011;4740;49.592;6.140;2024-03-23T12:37:57;0.10;;;0.10;;
9400;SDS011;4740;49.592;6.140;2024-03-23T12:40:23;0.57;;;0.27;;
9400;SDS011;4740;49.592;6.140;2024-03-23T12:42:48;0.47;;;0.47;;
9400;SDS011;4740;49.592;6.140;2024-03-23T12:45:14;0.57;;;0.40;;
9400;SDS011;4740;49.592;6.140;2024-03-23T12:47:39;1.10;;;1.00;;
9400;SDS011;4740;49.592;6.140;2024-03-23T12:50:04;1.03;;;0.97;;
9400;SDS011;4740;49.592;6.140;2024-03-23T12:52:31;3.03;;;1.10;;
9400;SDS011;4740;49.592;6.140;2024-03-23T12:54:56;1.30;;;1.20;;
9400;SDS011;4740;49.592;6.140;2024-03-23T12:57:25;0.30;;;0.30;;
9400;SDS011;4740;49.592;6.140;2024-03-23T12:59:53;2.30;;;0.80;;
9400;SDS011;4740;49.592;6.140;2024-03-23T13:02:22;1.57;;;0.87;;
9400;SDS011;4740;49.592;6.140;2024-03-23T13:04:51;0.87;;;0.87;;
9400;SDS011;4740;49.592;6.140;2024-03-23T13:07:17;0.57;;;0.37;;
9400;SDS011;4740;49.592;6.140;2024-03-23T13:09:42;0.20;;;0.20;;
9400;SDS011;4740;49.592;6.140;2024-03-23T13:12:07;0.57;;;0.57;;
9400;SDS011;4740;49.592;6.140;2024-03-23T13:14:33;3.10;;;0.20;;
9400;SDS011;4740;49.592;6.140;2024-03-23T13:16:58;0.53;;;0.30;;
9400;SDS011;4740;49.592;6.140;2024-03-23T13:19:24;0.40;;;0.40;;
9400;SDS011;4740;49.592;6.140;2024-03-23T13:21:52;0.55;;;0.55;;
9400;SDS011;4740;49.592;6.140;2024-03-23T13:24:17;1.33;;;0.40;;
9400;SDS011;4740;49.592;6.140;2024-03-23T13:26:43;1.13;;;0.53;;
9400;SDS011;4740;49.592;6.140;2024-03-23T13:29:08;0.23;;;0.23;;
9400;SDS011;4740;49.592;6.140;2024-03-23T13:31:33;0.70;;;0.70;;
9400;SDS011;4740;49.592;6.140;2024-03-23T13:33:59;0.67;;;0.40;;
9400;SDS011;4740;49.592;6.140;2024-03-23T13:36:24;1.53;;;0.60;;
9400;SDS011;4740;49.592;6.140;2024-03-23T13:38:49;0.20;;;0.20;;
9400;SDS011;4740;49.592;6.140;2024-03-23T13:41:14;0.43;;;0.43;;
9400;SDS011;4740;49.592;6.140;2024-03-23T13:43:40;0.20;;;0.20;;
9400;SDS011;4740;49.592;6.140;2024-03-23T13:46:06;0.10;;;0.10;;
9400;SDS011;4740;49.592;6.140;2024-03-23T13:48:31;0.03;;;0.03;;
9400;SDS011;4740;49.592;6.140;2024-03-23T13:50:59;1.33;;;0.50;;
9400;SDS011;4740;49.592;6.140;2024-03-23T13:53:25;1.60;;;0.57;;
9400;SDS011;4740;49.592;6.140;2024-03-23T13:55:50;0.47;;;0.43;;
9400;SDS011;4740;49.592;6.140;2024-03-23T13:58:15;0.40;;;0.33;;
9400;SDS011;4740;49.592;6.140;2024-03-23T14:00:41;0.37;;;0.37;;
9400;SDS011;4740;49.592;6.140;2024-03-23T14:03:08;0.27;;;0.20;;
9400;SDS011;4740;49.592;6.140;2024-03-23T14:05:33;0.20;;;0.20;;
9400;SDS011;4740;49.592;6.140;2024-03-23T14:07:58;1.70;;;0.20;;
9400;SDS011;4740;49.592;6.140;2024-03-23T14:10:24;0.00;;;0.00;;
9400;SDS011;4740;49.592;6.140;2024-03-23T14:12:51;0.00;;;0.00;;
9400;SDS011;4740;49.592;6.140;2024-03-23T14:15:16;0.00;;;0.00;;
9400;SDS011;4740;49.592;6.140;2024-03-23T14:17:43;0.00;;;0.00;;
9400;SDS011;4740;49.592;6.140;2024-03-23T14:20:08;0.00;;;0.00;;
9400;SDS011;4740;49.592;6.140;2024-03-23T14:22:36;0.00;;;0.00;;
9400;SDS011;4740;49.592;6.140;2024-03-23T14:25:01;0.00;;;0.00;;
9400;SDS011;4740;49.592;6.140;2024-03-23T14:27:27;0.00;;;0.00;;
9400;SDS011;4740;49.592;6.140;2024-03-23T14:29:52;0.00;;;0.00;;
9400;SDS011;4740;49.592;6.140;2024-03-23T14:32:18;0.00;;;0.00;;
9400;SDS011;4740;49.592;6.140;2024-03-23T14:34:43;0.00;;;0.00;;
9400;SDS011;4740;49.592;6.140;2024-03-23T14:37:09;0.00;;;0.00;;
9400;SDS011;4740;49.592;6.140;2024-03-23T14:39:34;0.00;;;0.00;;
9400;SDS011;4740;49.592;6.140;2024-03-23T14:42:00;0.00;;;0.00;;
9400;SDS011;4740;49.592;6.140;2024-03-23T14:44:26;0.00;;;0.00;;
9400;SDS011;4740;49.592;6.140;2024-03-23T14:46:51;0.00;;;0.00;;
9400;SDS011;4740;49.592;6.140;2024-03-23T14:49:17;0.00;;;0.00;;
9400;SDS011;4740;49.592;6.140;2024-03-23T14:51:44;0.00;;;0.00;;
9400;SDS011;4740;49.592;6.140;2024-03-23T14:54:10;0.10;;;0.10;;
9400;SDS011;4740;49.592;6.140;2024-03-23T14:56:36;0.30;;;0.30;;
9400;SDS011;4740;49.592;6.140;2024-03-23T14:59:02;0.77;;;0.67;;
9400;SDS011;4740;49.592;6.140;2024-03-23T15:01:28;0.40;;;0.40;;
9400;SDS011;4740;49.592;6.140;2024-03-23T15:03:53;0.10;;;0.10;;
9400;SDS011;4740;49.592;6.140;2024-03-23T15:06:18;2.37;;;0.87;;
9400;SDS011;4740;49.592;6.140;2024-03-23T15:08:44;0.73;;;0.70;;
9400;SDS011;4740;49.592;6.140;2024-03-23T15:11:09;0.80;;;0.13;;
9400;SDS011;4740;49.592;6.140;2024-03-23T15:13:37;0.30;;;0.30;;
9400;SDS011;4740;49.592;6.140;2024-03-23T15:16:03;0.23;;;0.17;;
9400;SDS011;4740;49.592;6.140;2024-03-23T15:18:29;0.67;;;0.67;;
9400;SDS011;4740;49.592;6.140;2024-03-23T15:20:55;0.20;;;0.17;;
9400;SDS011;4740;49.592;6.140;2024-03-23T15:23:20;0.37;;;0.37;;
9400;SDS011;4740;49.592;6.140;2024-03-23T15:25:46;0.37;;;0.37;;
9400;SDS011;4740;49.592;6.140;2024-03-23T15:28:11;0.10;;;0.10;;
9400;SDS011;4740;49.592;6.140;2024-03-23T15:30:36;0.67;;;0.67;;
9400;SDS011;4740;49.592;6.140;2024-03-23T15:33:01;3.10;;;0.30;;
9400;SDS011;4740;49.592;6.140;2024-03-23T15:35:27;0.80;;;0.80;;
9400;SDS011;4740;49.592;6.140;2024-03-23T15:37:53;0.83;;;0.83;;
9400;SDS011;4740;49.592;6.140;2024-03-23T15:40:18;0.63;;;0.63;;
9400;SDS011;4740;49.592;6.140;2024-03-23T15:42:43;0.30;;;0.30;;
9400;SDS011;4740;49.592;6.140;2024-03-23T15:45:09;0.77;;;0.20;;
9400;SDS011;4740;49.592;6.140;2024-03-23T15:47:37;0.10;;;0.10;;
9400;SDS011;4740;49.592;6.140;2024-03-23T15:50:02;0.30;;;0.30;;
9400;SDS011;4740;49.592;6.140;2024-03-23T15:52:33;0.30;;;0.30;;
9400;SDS011;4740;49.592;6.140;2024-03-23T15:54:59;0.20;;;0.20;;
9400;SDS011;4740;49.592;6.140;2024-03-23T15:57:25;0.97;;;0.97;;
9400;SDS011;4740;49.592;6.140;2024-03-23T15:59:50;0.00;;;0.00;;
9400;SDS011;4740;49.592;6.140;2024-03-23T16:02:15;0.13;;;0.13;;
9400;SDS011;4740;49.592;6.140;2024-03-23T16:04:41;0.10;;;0.10;;
9400;SDS011;4740;49.592;6.140;2024-03-23T16:07:06;0.50;;;0.43;;
9400;SDS011;4740;49.592;6.140;2024-03-23T16:09:31;0.27;;;0.27;;
9400;SDS011;4740;49.592;6.140;2024-03-23T16:11:56;3.60;;;0.43;;
9400;SDS011;4740;49.592;6.140;2024-03-23T16:14:21;0.20;;;0.20;;
9400;SDS011;4740;49.592;6.140;2024-03-23T16:16:47;0.00;;;0.00;;
9400;SDS011;4740;49.592;6.140;2024-03-23T16:19:12;1.33;;;0.60;;
9400;SDS011;4740;49.592;6.140;2024-03-23T16:21:38;0.00;;;0.00;;
9400;SDS011;4740;49.592;6.140;2024-03-23T16:24:03;0.40;;;0.27;;
9400;SDS011;4740;49.592;6.140;2024-03-23T16:26:29;4.23;;;0.57;;
9400;SDS011;4740;49.592;6.140;2024-03-23T16:28:54;0.40;;;0.40;;
9400;SDS011;4740;49.592;6.140;2024-03-23T16:31:19;0.13;;;0.13;;
9400;SDS011;4740;49.592;6.140;2024-03-23T16:33:45;1.00;;;0.53;;
9400;SDS011;4740;49.592;6.140;2024-03-23T16:36:10;0.10;;;0.10;;
9400;SDS011;4740;49.592;6.140;2024-03-23T16:38:39;0.40;;;0.40;;
9400;SDS011;4740;49.592;6.140;2024-03-23T16:41:05;0.13;;;0.13;;
9400;SDS011;4740;49.592;6.140;2024-03-23T16:43:31;0.50;;;0.47;;
9400;SDS011;4740;49.592;6.140;2024-03-23T16:46:06;0.00;;;0.00;;
9400;SDS011;4740;49.592;6.140;2024-03-23T16:48:34;0.13;;;0.13;;